createdAt,value
2019-03-30T00:00:35.229Z,9.48
2019-03-30T00:03:03.768Z,10.18
2019-03-30T00:05:32.324Z,9.55
2019-03-30T00:08:01.239Z,13.05
2019-03-30T00:10:29.691Z,10.05
2019-03-30T00:12:58.122Z,11.48
2019-03-30T00:15:27.094Z,12.80
2019-03-30T00:17:57.042Z,11.12
2019-03-30T00:20:27.253Z,8.93
2019-03-30T00:22:55.918Z,12.82
2019-03-30T00:25:24.450Z,11.70
2019-03-30T00:27:52.918Z,8.43
2019-03-30T00:30:21.809Z,10.75
2019-03-30T00:32:50.704Z,13.13
2019-03-30T00:35:19.182Z,12.37
2019-03-30T00:37:48.351Z,15.45
2019-03-30T00:40:16.791Z,14.45
2019-03-30T00:42:45.275Z,8.90
2019-03-30T00:45:14.109Z,11.18
2019-03-30T00:47:42.571Z,17.48
2019-03-30T00:50:11.103Z,12.25
2019-03-30T00:52:39.800Z,10.82
2019-03-30T00:55:08.276Z,10.82
2019-03-30T00:57:36.819Z,20.75
2019-03-30T01:00:07.666Z,12.40
2019-03-30T01:02:36.269Z,13.48
2019-03-30T01:05:07.583Z,10.58
2019-03-30T01:07:36.554Z,13.18
2019-03-30T01:10:07.918Z,10.30
2019-03-30T01:12:36.447Z,9.65
2019-03-30T01:15:08.699Z,12.25
2019-03-30T01:17:38.665Z,11.57
2019-03-30T01:20:10.574Z,13.62
2019-03-30T01:25:08.069Z,11.30
2019-03-30T01:27:36.883Z,9.48
2019-03-30T01:30:06.693Z,11.75
2019-03-30T01:32:35.292Z,12.07
2019-03-30T01:35:05.641Z,12.75
2019-03-30T01:37:34.211Z,13.53
2019-03-30T01:40:02.711Z,9.18
2019-03-30T01:42:31.500Z,12.37
2019-03-30T01:44:59.947Z,10.82
2019-03-30T01:47:28.710Z,11.78
2019-03-30T01:49:57.583Z,15.78
2019-03-30T01:52:26.021Z,11.40
2019-03-30T01:54:54.507Z,10.40
2019-03-30T01:57:23.158Z,14.60
2019-03-30T01:59:51.625Z,13.88
2019-03-30T02:02:20.104Z,10.70
2019-03-30T02:04:48.734Z,11.75
2019-03-30T02:07:17.190Z,15.98
2019-03-30T02:09:45.665Z,11.43
2019-03-30T02:12:16.256Z,11.08
2019-03-30T02:14:44.687Z,11.25
2019-03-30T02:17:13.342Z,13.70
2019-03-30T02:19:42.927Z,11.22
2019-03-30T02:22:11.434Z,10.95
2019-03-30T02:24:39.864Z,12.05
2019-03-30T02:27:08.503Z,13.58
2019-03-30T02:29:37.046Z,11.80
2019-03-30T02:32:05.526Z,14.30
2019-03-30T02:34:34.150Z,11.55
2019-03-30T02:37:02.695Z,17.12
2019-03-30T02:39:31.290Z,13.72
2019-03-30T02:41:59.879Z,13.65
2019-03-30T02:44:28.317Z,12.00
2019-03-30T02:46:56.859Z,14.93
2019-03-30T02:49:25.536Z,14.13
2019-03-30T02:51:54.215Z,13.88
2019-03-30T02:54:22.706Z,11.22
2019-03-30T02:56:51.483Z,16.52
2019-03-30T02:59:20.027Z,13.98
2019-03-30T03:01:48.593Z,14.20
2019-03-30T03:04:17.453Z,15.43
2019-03-30T03:06:45.857Z,15.32
2019-03-30T03:09:14.379Z,12.23
2019-03-30T03:11:43.091Z,15.38
2019-03-30T03:14:11.504Z,13.72
2019-03-30T03:16:39.940Z,13.83
2019-03-30T03:19:08.592Z,13.58
2019-03-30T03:21:37.107Z,11.95
2019-03-30T03:24:05.543Z,13.60
2019-03-30T03:26:34.313Z,13.03
2019-03-30T03:29:02.726Z,15.15
2019-03-30T03:31:31.208Z,13.00
2019-03-30T03:33:59.829Z,17.32
2019-03-30T03:36:28.315Z,13.85
2019-03-30T03:38:56.759Z,13.53
2019-03-30T03:41:25.431Z,13.20
2019-03-30T03:43:53.992Z,13.03
2019-03-30T03:46:22.460Z,13.28
2019-03-30T03:48:51.272Z,14.83
2019-03-30T03:51:26.093Z,12.88
2019-03-30T03:53:51.480Z,14.13
2019-03-30T03:56:22.054Z,11.88
2019-03-30T03:58:52.197Z,14.40
2019-03-30T04:01:22.669Z,15.45
2019-03-30T04:03:53.457Z,15.40
2019-03-30T04:06:24.835Z,14.30
2019-03-30T04:08:56.170Z,12.20
2019-03-30T04:11:25.481Z,12.20
2019-03-30T04:13:56.927Z,14.13
2019-03-30T04:16:25.443Z,14.28
2019-03-30T04:18:53.889Z,14.83
2019-03-30T04:21:22.487Z,14.80
2019-03-30T04:23:54.226Z,13.13
2019-03-30T04:26:21.121Z,16.70
2019-03-30T04:28:50.402Z,15.32
2019-03-30T04:31:18.892Z,18.85
2019-03-30T04:33:47.446Z,15.88
2019-03-30T04:36:16.172Z,13.45
2019-03-30T04:38:44.691Z,14.30
2019-03-30T04:41:13.152Z,14.95
2019-03-30T04:43:41.790Z,16.62
2019-03-30T04:46:10.214Z,14.98
2019-03-30T04:48:38.669Z,16.15
2019-03-30T04:51:07.681Z,14.53
2019-03-30T04:53:36.127Z,14.58
2019-03-30T04:56:04.853Z,14.13
2019-03-30T04:58:33.469Z,17.90
2019-03-30T05:01:02.000Z,14.73
2019-03-30T05:03:30.494Z,16.48
2019-03-30T05:05:59.122Z,14.38
2019-03-30T05:08:27.613Z,16.07
2019-03-30T05:10:56.466Z,11.90
2019-03-30T05:13:25.369Z,16.30
2019-03-30T05:15:53.841Z,16.95
2019-03-30T05:18:22.274Z,13.78
2019-03-30T05:20:53.558Z,13.30
2019-03-30T05:23:22.046Z,17.52
2019-03-30T05:25:50.515Z,17.62
2019-03-30T05:28:19.058Z,16.45
2019-03-30T05:30:47.517Z,15.13
2019-03-30T05:33:15.961Z,18.15
2019-03-30T05:35:44.626Z,17.25
2019-03-30T05:38:13.075Z,17.90
2019-03-30T05:40:43.427Z,16.02
2019-03-30T05:43:11.949Z,16.05
2019-03-30T05:45:40.382Z,18.50
2019-03-30T05:48:08.901Z,20.45
2019-03-30T05:50:37.791Z,17.15
2019-03-30T05:53:06.329Z,29.20
2019-03-30T05:55:34.856Z,21.02
2019-03-30T05:58:03.541Z,14.98
2019-03-30T06:00:31.976Z,18.17
2019-03-30T06:03:00.484Z,12.98
2019-03-30T06:05:29.121Z,14.87
2019-03-30T06:07:57.546Z,15.75
2019-03-30T06:10:25.953Z,14.47
2019-03-30T06:12:54.654Z,17.00
2019-03-30T06:15:23.140Z,28.20
2019-03-30T06:17:51.804Z,16.45
2019-03-30T06:20:20.514Z,13.38
2019-03-30T06:22:48.982Z,15.95
2019-03-30T06:25:17.470Z,17.40
2019-03-30T06:27:46.751Z,17.10
2019-03-30T06:30:26.681Z,16.27
2019-03-30T06:32:55.353Z,17.40
2019-03-30T06:35:23.928Z,17.57
2019-03-30T06:37:52.363Z,15.65
2019-03-30T06:40:21.267Z,16.25
2019-03-30T06:42:49.909Z,18.85
2019-03-30T06:45:18.350Z,17.52
2019-03-30T06:47:47.063Z,18.12
2019-03-30T06:50:15.859Z,16.20
2019-03-30T06:52:56.697Z,19.20
2019-03-30T06:55:14.951Z,16.52
2019-03-30T06:57:43.499Z,19.92
2019-03-30T07:00:12.596Z,17.12
2019-03-30T07:02:42.288Z,19.62
2019-03-30T07:05:11.866Z,17.67
2019-03-30T07:07:41.978Z,17.77
2019-03-30T07:10:10.882Z,17.10
2019-03-30T07:12:41.370Z,16.73
2019-03-30T07:15:10.241Z,16.82
2019-03-30T07:17:41.950Z,18.98
2019-03-30T07:20:13.482Z,17.17
2019-03-30T07:22:41.917Z,19.15
2019-03-30T07:25:10.591Z,15.20
2019-03-30T07:27:39.839Z,18.48
2019-03-30T07:30:08.601Z,19.80
2019-03-30T07:32:37.504Z,15.43
2019-03-30T07:35:06.610Z,14.45
2019-03-30T07:37:35.067Z,17.65
2019-03-30T07:40:04.985Z,17.65
2019-03-30T07:42:33.456Z,16.20
2019-03-30T07:45:01.977Z,17.10
2019-03-30T07:47:30.694Z,17.57
2019-03-30T07:49:59.140Z,22.48
2019-03-30T07:52:27.579Z,17.32
2019-03-30T07:54:56.263Z,20.92
2019-03-30T07:57:24.772Z,18.48
2019-03-30T07:59:53.304Z,19.87
2019-03-30T08:02:21.882Z,17.27
2019-03-30T08:04:51.271Z,19.17
2019-03-30T08:07:19.692Z,20.75
2019-03-30T08:09:48.434Z,20.35
2019-03-30T08:12:16.872Z,21.00
2019-03-30T08:14:45.440Z,19.62
2019-03-30T08:17:14.129Z,20.80
2019-03-30T08:19:42.575Z,18.42
2019-03-30T08:22:11.061Z,17.87
2019-03-30T08:24:39.716Z,18.32
2019-03-30T08:27:08.275Z,19.73
2019-03-30T08:29:36.953Z,20.92
2019-03-30T08:32:05.769Z,20.02
2019-03-30T08:34:34.360Z,18.82
2019-03-30T08:37:02.808Z,17.98
2019-03-30T08:39:31.459Z,20.82
2019-03-30T08:41:59.965Z,17.20
2019-03-30T08:44:28.517Z,16.02
2019-03-30T08:46:57.232Z,17.42
2019-03-30T08:49:25.674Z,20.23
2019-03-30T08:51:54.200Z,20.65
2019-03-30T08:54:23.666Z,17.67
2019-03-30T08:56:52.093Z,16.57
2019-03-30T08:59:20.554Z,20.80
2019-03-30T09:01:49.317Z,16.57
2019-03-30T09:04:17.779Z,18.82
2019-03-30T09:06:46.233Z,17.12
2019-03-30T09:09:14.950Z,22.52
2019-03-30T09:11:43.741Z,24.18
2019-03-30T09:14:12.286Z,18.15
2019-03-30T09:16:40.860Z,19.40
2019-03-30T09:19:09.550Z,18.42
2019-03-30T09:21:38.041Z,16.82
2019-03-30T09:24:09.877Z,23.55
2019-03-30T09:26:36.738Z,17.20
2019-03-30T09:29:05.174Z,19.07
2019-03-30T09:31:33.761Z,18.98
2019-03-30T09:34:02.325Z,25.48
2019-03-30T09:36:30.813Z,19.45
2019-03-30T09:38:59.449Z,17.95
2019-03-30T09:41:28.022Z,17.90
2019-03-30T09:43:56.458Z,18.45
2019-03-30T09:46:25.153Z,25.45
2019-03-30T09:48:53.678Z,20.30
2019-03-30T09:51:22.121Z,23.85
2019-03-30T09:53:50.824Z,27.32
2019-03-30T09:56:19.255Z,20.52
2019-03-30T09:58:47.679Z,19.05
2019-03-30T10:01:16.317Z,21.33
2019-03-30T10:03:44.855Z,18.02
2019-03-30T10:06:13.287Z,15.10
2019-03-30T10:08:42.317Z,17.67
2019-03-30T10:11:10.851Z,20.97
2019-03-30T10:13:39.386Z,17.17
2019-03-30T10:16:08.303Z,18.98
2019-03-30T10:18:36.768Z,15.95
2019-03-30T10:21:05.201Z,27.55
2019-03-30T10:23:33.971Z,39.50
2019-03-30T10:26:02.411Z,19.37
2019-03-30T10:28:30.824Z,15.08
2019-03-30T10:30:59.571Z,20.88
2019-03-30T10:33:28.002Z,20.62
2019-03-30T10:35:56.443Z,20.23
2019-03-30T10:38:25.113Z,19.27
2019-03-30T10:40:53.546Z,19.73
2019-03-30T10:43:22.088Z,21.87
2019-03-30T10:45:50.678Z,19.70
2019-03-30T10:48:19.289Z,21.82
2019-03-30T10:50:47.730Z,16.00
2019-03-30T10:53:16.623Z,18.25
2019-03-30T10:55:45.305Z,17.32
2019-03-30T10:58:13.807Z,14.23
2019-03-30T11:00:42.942Z,16.17
2019-03-30T11:03:11.401Z,14.93
2019-03-30T11:05:39.942Z,12.90
2019-03-30T11:08:08.890Z,18.15
2019-03-30T11:10:40.085Z,15.15
2019-03-30T11:13:09.644Z,13.30
2019-03-30T11:15:38.250Z,16.23
2019-03-30T11:18:06.759Z,14.55
2019-03-30T11:20:35.394Z,12.10
2019-03-30T11:23:04.258Z,16.52
2019-03-30T11:25:32.824Z,15.35
2019-03-30T11:28:01.282Z,13.70
2019-03-30T11:30:29.884Z,10.65
2019-03-30T11:32:58.404Z,10.72
2019-03-30T11:35:26.863Z,13.40
2019-03-30T11:37:55.655Z,12.18
2019-03-30T11:40:24.187Z,10.25
2019-03-30T11:42:52.702Z,12.63
2019-03-30T11:45:21.375Z,10.53
2019-03-30T11:47:49.834Z,13.30
2019-03-30T11:50:18.422Z,11.90
2019-03-30T11:52:47.189Z,10.45
2019-03-30T11:55:21.997Z,12.30
2019-03-30T11:57:46.089Z,53.40
2019-03-30T12:00:15.382Z,18.82
2019-03-30T12:02:43.871Z,11.48
2019-03-30T12:05:12.523Z,13.08
2019-03-30T12:07:41.142Z,9.85
2019-03-30T12:10:09.656Z,9.90
2019-03-30T12:12:38.148Z,11.80
2019-03-30T12:15:08.895Z,12.75
2019-03-30T12:17:40.737Z,26.50
2019-03-30T12:20:08.337Z,13.38
2019-03-30T12:22:37.084Z,13.13
2019-03-30T12:25:05.902Z,11.10
2019-03-30T12:27:34.390Z,14.50
2019-03-30T12:30:03.202Z,9.83
2019-03-30T12:32:31.722Z,10.32
2019-03-30T12:35:00.398Z,12.58
2019-03-30T12:37:29.249Z,9.35
2019-03-30T12:39:58.448Z,15.63
2019-03-30T12:42:27.174Z,11.38
2019-03-30T12:44:55.763Z,9.90
2019-03-30T12:47:24.408Z,11.43
2019-03-30T12:49:52.973Z,10.30
2019-03-30T12:52:21.788Z,10.78
2019-03-30T12:54:50.266Z,14.58
2019-03-30T12:57:18.816Z,12.00
2019-03-30T12:59:47.467Z,12.58
2019-03-30T13:02:15.975Z,11.03
2019-03-30T13:04:44.500Z,10.60
2019-03-30T13:07:14.006Z,10.65
2019-03-30T13:09:42.523Z,13.18
2019-03-30T13:12:11.099Z,8.33
2019-03-30T13:14:39.714Z,11.95
2019-03-30T13:17:08.280Z,11.75
2019-03-30T13:19:36.746Z,10.23
2019-03-30T13:22:05.496Z,10.72
2019-03-30T13:24:34.100Z,12.33
2019-03-30T13:27:02.612Z,15.95
2019-03-30T13:29:31.670Z,12.30
2019-03-30T13:32:00.151Z,23.02
2019-03-30T13:34:28.621Z,12.90
2019-03-30T13:36:57.435Z,11.40
2019-03-30T13:39:26.031Z,24.50
2019-03-30T13:41:54.698Z,28.85
2019-03-30T13:44:23.426Z,12.75
2019-03-30T13:46:51.838Z,12.18
2019-03-30T13:49:20.391Z,15.35
2019-03-30T13:51:49.550Z,13.45
2019-03-30T13:54:17.996Z,16.90
2019-03-30T13:56:46.427Z,13.83
2019-03-30T13:59:15.204Z,13.45
2019-03-30T14:01:43.701Z,13.72
2019-03-30T14:04:12.151Z,14.87
2019-03-30T14:06:41.156Z,11.50
2019-03-30T14:09:09.666Z,14.30
2019-03-30T14:11:39.165Z,15.38
2019-03-30T14:14:08.757Z,14.80
2019-03-30T14:16:38.399Z,15.30
2019-03-30T14:19:07.008Z,14.25
2019-03-30T14:21:35.573Z,15.13
2019-03-30T14:24:04.465Z,12.60
2019-03-30T14:26:33.119Z,13.88
2019-03-30T14:29:01.773Z,12.55
2019-03-30T14:31:30.322Z,15.10
2019-03-30T14:33:59.104Z,13.05
2019-03-30T14:36:27.907Z,16.70
2019-03-30T14:38:59.121Z,16.40
2019-03-30T14:41:28.875Z,20.32
2019-03-30T14:43:57.612Z,17.30
2019-03-30T14:46:26.303Z,90.10
2019-03-30T14:48:54.780Z,24.57
2019-03-30T14:51:23.674Z,19.20
2019-03-30T14:53:52.159Z,22.45
2019-03-30T14:56:20.676Z,16.80
2019-03-30T14:58:49.372Z,18.05
2019-03-30T15:01:18.024Z,18.35
2019-03-30T15:03:46.689Z,18.57
2019-03-30T15:06:15.249Z,16.67
2019-03-30T15:08:43.673Z,15.43
2019-03-30T15:11:12.163Z,21.10
2019-03-30T15:13:41.444Z,14.53
2019-03-30T15:16:10.073Z,14.65
2019-03-30T15:18:39.353Z,19.02
2019-03-30T15:21:08.580Z,15.85
2019-03-30T15:23:37.438Z,16.05
2019-03-30T15:26:06.031Z,13.40
2019-03-30T15:28:34.770Z,16.15
2019-03-30T15:31:03.274Z,16.77
2019-03-30T15:33:31.755Z,13.60
2019-03-30T15:36:00.631Z,16.50
2019-03-30T15:38:29.102Z,14.30
2019-03-30T15:40:57.573Z,12.65
2019-03-30T15:43:37.564Z,21.37
2019-03-30T15:45:56.539Z,12.25
2019-03-30T15:48:28.111Z,13.20
2019-03-30T15:50:55.619Z,15.13
2019-03-30T15:53:24.074Z,11.57
2019-03-30T15:55:52.525Z,18.07
2019-03-30T15:58:21.281Z,13.68
2019-03-30T16:00:49.784Z,14.65
2019-03-30T16:03:18.214Z,13.60
2019-03-30T16:05:47.058Z,19.17
2019-03-30T16:08:15.561Z,12.20
2019-03-30T16:10:44.012Z,12.33
2019-03-30T16:13:14.645Z,12.70
2019-03-30T16:15:44.570Z,16.00
2019-03-30T16:18:13.459Z,14.47
2019-03-30T16:20:42.239Z,13.28
2019-03-30T16:23:10.761Z,11.93
2019-03-30T16:25:39.294Z,13.58
2019-03-30T16:28:07.999Z,12.10
2019-03-30T16:30:36.614Z,14.43
2019-03-30T16:33:05.190Z,14.43
2019-03-30T16:35:33.920Z,13.53
2019-03-30T16:38:02.409Z,13.62
2019-03-30T16:40:30.928Z,13.45
2019-03-30T16:42:59.524Z,13.15
2019-03-30T16:45:28.026Z,13.50
2019-03-30T16:47:56.655Z,13.53
2019-03-30T16:50:25.429Z,14.18
2019-03-30T16:52:54.093Z,14.03
2019-03-30T16:55:22.608Z,15.30
2019-03-30T16:57:51.294Z,16.90
2019-03-30T17:00:19.779Z,14.35
2019-03-30T17:02:48.274Z,12.68
2019-03-30T17:05:17.077Z,15.53
2019-03-30T17:07:45.637Z,12.37
2019-03-30T17:10:14.210Z,14.13
2019-03-30T17:12:42.903Z,17.87
2019-03-30T17:15:11.607Z,12.88
2019-03-30T17:17:40.122Z,15.30
2019-03-30T17:20:08.865Z,17.17
2019-03-30T17:22:37.373Z,16.05
2019-03-30T17:25:07.525Z,17.10
2019-03-30T17:27:36.998Z,15.63
2019-03-30T17:30:07.834Z,16.85
2019-03-30T17:32:36.371Z,16.35
2019-03-30T17:35:06.613Z,20.20
2019-03-30T17:37:35.138Z,16.40
2019-03-30T17:40:05.948Z,16.62
2019-03-30T17:42:34.602Z,17.87
2019-03-30T17:45:03.255Z,17.00
2019-03-30T17:47:31.728Z,19.75
2019-03-30T17:50:00.577Z,15.28
2019-03-30T17:52:29.014Z,15.58
2019-03-30T17:54:57.615Z,19.37
2019-03-30T17:57:26.331Z,18.73
2019-03-30T17:59:54.759Z,19.00
2019-03-30T18:02:23.354Z,17.77
2019-03-30T18:04:52.291Z,17.23
2019-03-30T18:07:20.710Z,19.42
2019-03-30T18:09:49.230Z,19.57
2019-03-30T18:12:20.377Z,23.50
2019-03-30T18:14:48.280Z,17.40
2019-03-30T18:17:16.806Z,21.87
2019-03-30T18:19:45.521Z,20.88
2019-03-30T18:22:14.048Z,20.30
2019-03-30T18:24:42.591Z,18.70
2019-03-30T18:27:11.245Z,17.50
2019-03-30T18:29:39.695Z,17.80
2019-03-30T18:32:08.132Z,17.67
2019-03-30T18:34:37.251Z,17.52
2019-03-30T18:37:06.511Z,18.40
2019-03-30T18:39:35.574Z,19.73
2019-03-30T18:42:04.764Z,23.92
2019-03-30T18:44:33.274Z,22.48
2019-03-30T18:47:01.840Z,22.27
2019-03-30T18:49:30.472Z,23.47
2019-03-30T18:51:59.514Z,29.32
2019-03-30T18:54:28.614Z,38.35
2019-03-30T18:56:57.436Z,40.80
2019-03-30T18:59:25.882Z,47.73
2019-03-30T19:01:54.300Z,46.98
2019-03-30T19:04:23.035Z,37.95
2019-03-30T19:06:51.531Z,28.87
2019-03-30T19:09:20.039Z,35.60
2019-03-30T19:11:48.789Z,35.95
2019-03-30T19:14:17.706Z,29.45
2019-03-30T19:16:46.197Z,31.52
2019-03-30T19:19:15.002Z,34.25
2019-03-30T19:22:02.787Z,26.87
2019-03-30T19:24:31.419Z,26.40
2019-03-30T19:26:59.988Z,21.20
2019-03-30T19:29:28.798Z,29.10
2019-03-30T19:31:57.438Z,30.32
2019-03-30T19:34:25.904Z,29.37
2019-03-30T19:36:54.363Z,33.02
2019-03-30T19:39:23.050Z,31.73
2019-03-30T19:41:51.630Z,33.60
2019-03-30T19:44:20.141Z,26.33
2019-03-30T19:46:48.857Z,26.75
2019-03-30T19:49:17.278Z,30.05
2019-03-30T19:51:45.791Z,27.85
2019-03-30T19:54:14.581Z,27.20
2019-03-30T19:56:43.047Z,28.62
2019-03-30T19:59:11.609Z,31.15
2019-03-30T20:01:41.047Z,27.48
2019-03-30T20:04:09.554Z,26.60
2019-03-30T20:06:37.978Z,23.73
2019-03-30T20:09:08.332Z,27.90
2019-03-30T20:11:36.836Z,26.62
2019-03-30T20:14:05.380Z,23.60
2019-03-30T20:16:33.914Z,32.98
2019-03-30T20:19:11.870Z,30.77
2019-03-30T20:21:32.688Z,33.33
2019-03-30T20:24:01.406Z,30.15
2019-03-30T20:26:29.933Z,30.25
2019-03-30T20:28:58.350Z,27.10
2019-03-30T20:31:27.278Z,23.27
2019-03-30T20:33:55.788Z,24.00
2019-03-30T20:36:24.327Z,23.38
2019-03-30T20:38:53.113Z,23.32
2019-03-30T20:41:21.555Z,21.90
2019-03-30T20:43:50.016Z,21.33
2019-03-30T20:46:18.737Z,23.83
2019-03-30T20:48:47.358Z,33.78
2019-03-30T20:51:15.786Z,25.57
2019-03-30T20:53:44.510Z,18.65
2019-03-30T20:56:13.070Z,25.37
2019-03-30T20:58:41.522Z,19.95
2019-03-30T21:01:10.356Z,21.20
2019-03-30T21:03:38.801Z,17.25
2019-03-30T21:06:07.307Z,16.12
2019-03-30T21:08:35.982Z,23.95
2019-03-30T21:11:04.498Z,29.80
2019-03-30T21:13:32.937Z,23.73
2019-03-30T21:16:01.665Z,29.35
2019-03-30T21:18:30.088Z,25.77
2019-03-30T21:20:58.508Z,30.27
2019-03-30T21:23:27.318Z,32.30
2019-03-30T21:25:55.816Z,20.40
2019-03-30T21:28:24.241Z,22.50
2019-03-30T21:30:53.032Z,23.75
2019-03-30T21:33:21.884Z,19.45
2019-03-30T21:35:50.481Z,23.65
2019-03-30T21:38:19.215Z,22.00
2019-03-30T21:40:47.651Z,21.75
2019-03-30T21:43:19.534Z,26.87
2019-03-30T21:45:47.232Z,25.50
2019-03-30T21:48:15.676Z,28.05
2019-03-30T21:50:44.104Z,28.60
2019-03-30T21:53:12.863Z,26.60
2019-03-30T21:55:41.307Z,27.50
2019-03-30T21:58:09.730Z,26.00
2019-03-30T22:01:00.014Z,29.18
2019-03-30T22:03:28.714Z,30.82
2019-03-30T22:05:57.243Z,26.70
2019-03-30T22:08:26.489Z,27.42
2019-03-30T22:10:55.039Z,25.77
2019-03-30T22:13:23.694Z,27.10
2019-03-30T22:15:52.455Z,26.17
2019-03-30T22:18:20.883Z,27.73
2019-03-30T22:20:50.986Z,28.70
2019-03-30T22:23:19.822Z,27.73
2019-03-30T22:25:48.269Z,27.87
2019-03-30T22:28:16.714Z,30.45
2019-03-30T22:30:45.441Z,26.12
2019-03-30T22:33:13.944Z,31.87
2019-03-30T22:35:42.445Z,27.22
2019-03-30T22:38:11.079Z,30.70
2019-03-30T22:40:41.379Z,24.70
2019-03-30T22:43:09.684Z,23.85
2019-03-30T22:45:38.438Z,26.60
2019-03-30T22:48:06.898Z,29.35
2019-03-30T22:50:35.347Z,26.45
2019-03-30T22:53:03.878Z,29.10
2019-03-30T22:55:32.372Z,26.55
2019-03-30T22:58:00.934Z,30.72
2019-03-30T23:00:43.160Z,27.95
2019-03-30T23:03:11.990Z,27.30
2019-03-30T23:05:40.485Z,33.05
2019-03-30T23:08:08.999Z,32.53
2019-03-30T23:10:37.498Z,29.15
2019-03-30T23:13:05.962Z,31.87
2019-03-30T23:15:46.257Z,32.73
2019-03-30T23:18:14.714Z,33.30
2019-03-30T23:20:43.186Z,30.80
2019-03-30T23:23:12.413Z,33.00
2019-03-30T23:25:40.827Z,30.80
2019-03-30T23:28:09.331Z,30.08
2019-03-30T23:30:37.876Z,36.33
2019-03-30T23:33:06.354Z,35.70
2019-03-30T23:35:34.785Z,34.05
2019-03-30T23:38:03.640Z,36.13
2019-03-30T23:40:32.560Z,33.20
2019-03-30T23:43:01.044Z,31.95
2019-03-30T23:45:29.873Z,33.65
2019-03-30T23:47:58.535Z,33.42
2019-03-30T23:50:26.942Z,33.92
2019-03-30T23:52:55.533Z,33.67
2019-03-30T23:55:23.997Z,34.45
2019-03-30T23:57:52.460Z,31.40
